createdAt,value
2023-04-03T00:04:22.626Z,9.30
2023-04-03T00:11:37.105Z,8.30
2023-04-03T00:26:32.328Z,9.30
2023-04-03T00:33:17.782Z,9.40
2023-04-03T00:40:26.587Z,10.20
2023-04-03T00:47:30.064Z,9.10
2023-04-03T01:11:12.856Z,10.20
2023-04-03T01:18:10.995Z,8.20
2023-04-03T01:24:13.001Z,7.90
2023-04-03T01:45:17.730Z,5.50
2023-04-03T01:52:12.633Z,5.80
2023-04-03T01:58:59.997Z,5.50
2023-04-03T02:13:05.198Z,5.10
2023-04-03T02:27:11.390Z,5.70
2023-04-03T02:47:31.226Z,5.30
2023-04-03T03:08:21.482Z,5.20
2023-04-03T03:14:45.316Z,5.80
2023-04-03T03:21:02.251Z,4.90
2023-04-03T03:27:14.583Z,4.70
2023-04-03T03:33:51.540Z,4.70
2023-04-03T03:40:25.376Z,6.10
2023-04-03T03:47:42.314Z,5.80
2023-04-03T03:55:05.219Z,5.30
2023-04-03T04:02:18.109Z,5.40
2023-04-03T04:08:59.647Z,5.40
2023-04-03T04:43:02.483Z,6.00
2023-04-03T04:53:15.129Z,5.50
2023-04-03T05:00:21.493Z,5.00
2023-04-03T05:07:10.891Z,6.00
2023-04-03T05:17:12.501Z,5.10
2023-04-03T05:23:54.830Z,5.00
2023-04-03T05:30:56.294Z,4.90
2023-04-03T05:37:04.987Z,4.90
2023-04-03T05:42:54.436Z,5.90
2023-04-03T05:48:41.695Z,6.00
2023-04-03T05:54:50.543Z,5.80
2023-04-03T06:00:25.314Z,5.70
2023-04-03T06:06:04.558Z,5.80
2023-04-03T06:12:19.097Z,5.90
2023-04-03T06:17:55.695Z,4.90
2023-04-03T06:22:58.443Z,5.10
2023-04-03T06:28:04.974Z,5.20
2023-04-03T06:33:31.280Z,4.70
2023-04-03T06:38:40.519Z,5.50
2023-04-03T06:44:24.912Z,4.80
2023-04-03T06:49:45.235Z,5.50
2023-04-03T06:55:00.211Z,4.60
2023-04-03T07:00:13.242Z,4.90
2023-04-03T07:05:22.237Z,4.90
2023-04-03T07:10:32.841Z,4.90
2023-04-03T07:16:51.739Z,4.40
2023-04-03T07:22:12.986Z,4.30
2023-04-03T07:28:03.002Z,4.50
2023-04-03T07:34:40.835Z,4.40
2023-04-03T07:41:15.895Z,4.10
2023-04-03T07:47:52.394Z,5.20
2023-04-03T07:53:50.303Z,3.70
2023-04-03T07:59:45.165Z,4.00
2023-04-03T08:05:13.879Z,3.60
2023-04-03T08:10:26.521Z,3.90
2023-04-03T08:16:19.703Z,3.30
2023-04-03T08:21:57.033Z,3.90
2023-04-03T08:27:36.122Z,4.10
2023-04-03T08:33:43.205Z,3.30
2023-04-03T08:39:53.023Z,2.40
2023-04-03T08:45:58.919Z,3.00
2023-04-03T08:52:31.422Z,2.80
2023-04-03T08:58:34.797Z,2.60
2023-04-03T09:04:09.291Z,2.10
2023-04-03T09:09:57.945Z,2.00
2023-04-03T09:16:42.954Z,3.00
2023-04-03T09:23:00.566Z,2.80
2023-04-03T09:28:15.397Z,2.60
2023-04-03T09:33:44.541Z,2.60
2023-04-03T09:39:26.464Z,2.60
2023-04-03T09:45:36.893Z,2.40
2023-04-03T09:50:51.652Z,3.00
2023-04-03T09:56:06.342Z,2.30
2023-04-03T10:03:00.721Z,2.40
2023-04-03T10:08:13.206Z,2.70
2023-04-03T10:19:36.784Z,3.10
2023-04-03T10:25:03.786Z,2.30
2023-04-03T10:30:51.932Z,2.50
2023-04-03T10:36:28.378Z,2.60
2023-04-03T10:42:16.021Z,2.90
2023-04-03T10:47:56.616Z,2.60
2023-04-03T10:53:14.782Z,2.60
2023-04-03T10:59:01.473Z,2.70
2023-04-03T11:04:45.280Z,2.90
2023-04-03T11:10:32.255Z,2.50
2023-04-03T11:15:52.909Z,2.80
2023-04-03T11:21:16.671Z,2.30
2023-04-03T11:26:33.496Z,2.90
2023-04-03T11:32:54.718Z,3.00
2023-04-03T11:38:58.964Z,3.10
2023-04-03T11:45:33.635Z,2.80
2023-04-03T11:51:04.327Z,3.10
2023-04-03T11:57:01.122Z,3.30
2023-04-03T12:02:54.822Z,3.20
2023-04-03T12:08:47.741Z,2.70
2023-04-03T12:14:50.123Z,3.20
2023-04-03T12:20:51.360Z,2.60
2023-04-03T12:26:17.200Z,2.60
2023-04-03T12:32:34.773Z,2.80
2023-04-03T12:38:11.037Z,2.90
2023-04-03T12:49:20.686Z,3.50
2023-04-03T12:55:04.803Z,3.20
2023-04-03T13:01:12.065Z,3.20
2023-04-03T13:06:51.128Z,2.80
2023-04-03T13:12:41.386Z,2.90
2023-04-03T13:18:47.364Z,2.90
2023-04-03T13:24:17.889Z,3.10
2023-04-03T13:29:54.211Z,2.90
2023-04-03T13:35:31.599Z,3.30
2023-04-03T13:41:40.981Z,3.50
2023-04-03T13:46:44.270Z,3.20
2023-04-03T13:52:47.315Z,3.40
2023-04-03T13:59:15.951Z,3.30
2023-04-03T14:06:02.442Z,2.80
2023-04-03T14:12:31.375Z,3.30
2023-04-03T14:18:59.815Z,3.50
2023-04-03T14:32:34.015Z,3.10
2023-04-03T14:39:01.968Z,3.30
2023-04-03T14:44:49.057Z,4.10
2023-04-03T14:51:04.504Z,4.50
2023-04-03T14:56:46.133Z,4.10
2023-04-03T15:03:03.421Z,4.10
2023-04-03T15:09:03.605Z,4.10
2023-04-03T15:14:51.804Z,4.40
2023-04-03T15:20:50.946Z,4.20
2023-04-03T15:26:38.838Z,3.70
2023-04-03T15:39:11.086Z,4.70
2023-04-03T15:45:36.176Z,4.10
2023-04-03T15:51:39.056Z,5.00
2023-04-03T16:03:20.221Z,5.10
2023-04-03T16:09:41.161Z,4.40
2023-04-03T16:15:50.172Z,4.20
2023-04-03T16:22:39.211Z,4.30
2023-04-03T16:29:32.155Z,4.60
2023-04-03T16:36:03.025Z,3.80
2023-04-03T16:43:05.178Z,3.50
2023-04-03T16:50:07.304Z,3.70
2023-04-03T16:56:33.673Z,4.10
2023-04-03T17:03:22.156Z,4.30
2023-04-03T17:24:22.758Z,4.00
2023-04-03T17:30:01.645Z,4.00
2023-04-03T17:43:02.692Z,5.00
2023-04-03T17:48:24.405Z,4.60
2023-04-03T17:55:19.813Z,5.10
2023-04-03T18:01:54.340Z,4.60
2023-04-03T18:07:59.511Z,4.20
2023-04-03T18:13:53.662Z,5.30
2023-04-03T18:19:50.631Z,4.80
2023-04-03T18:25:55.943Z,5.30
2023-04-03T18:32:25.863Z,5.60
2023-04-03T18:38:14.012Z,5.90
2023-04-03T18:43:40.089Z,5.10
2023-04-03T18:49:09.401Z,5.30
2023-04-03T18:54:52.772Z,4.70
2023-04-03T19:00:07.917Z,5.10
2023-04-03T19:05:27.961Z,5.20
2023-04-03T19:10:58.911Z,5.10
2023-04-03T19:16:26.629Z,5.10
2023-04-03T19:21:29.499Z,5.70
2023-04-03T19:26:32.066Z,5.50
2023-04-03T19:32:33.725Z,5.30
2023-04-03T19:37:36.347Z,5.80
2023-04-03T19:43:35.580Z,6.40
2023-04-03T19:49:56.800Z,6.60
2023-04-03T19:56:54.572Z,5.70
2023-04-03T20:09:25.206Z,6.10
2023-04-03T20:23:25.351Z,5.70
2023-04-03T20:28:30.796Z,6.40
2023-04-03T20:33:48.007Z,7.10
2023-04-03T20:39:56.281Z,6.80
2023-04-03T20:46:20.436Z,9.30
2023-04-03T20:53:01.034Z,7.90
2023-04-03T20:59:57.222Z,7.60
2023-04-03T21:06:09.855Z,7.90
2023-04-03T21:11:55.530Z,8.50
2023-04-03T21:18:49.086Z,7.90
2023-04-03T21:25:20.698Z,8.40
2023-04-03T21:31:29.254Z,8.10
2023-04-03T21:38:35.089Z,7.40
2023-04-03T22:02:55.098Z,7.50
2023-04-03T22:09:24.893Z,8.00
2023-04-03T22:15:53.101Z,7.10
2023-04-03T22:22:20.922Z,6.60
2023-04-03T22:28:34.491Z,7.10
2023-04-03T22:56:39.451Z,6.50
2023-04-03T23:03:12.710Z,5.60
2023-04-03T23:09:19.518Z,6.30
